^^
Paulen-Weather Station Historical Data
Daily Summary for May 03, 2022 Units:  Both    English   Metric
Daily Weekly Monthly Yearly Custom
  High: Low: Average:
Temperature: 50 °F /  10 °C 42.8 °F /  6 °C 46 °F /  7.8 °C
Dew Point: 37.4 °F /  3 °C 30.2 °F /  -1 °C 33.1 °F /  0.6 °C
Humidity: 65% 50% 60%
Wind Speed: 18mph /  29km/h - 11.1mph /  17.9km/h
Wind Gust: 14.9mph /  24km/h - -
Wind- - ENE
Pressure: 30.1 in /  1020.12 hPa 29.9 in /  1014.02 hPa -
Precipitation: 0 in /  0 mm    
Historical Graphs
 
 
Tabular Data for May 03, 2022
Time Temperature Dew Point Pressure Wind Wind Speed Wind Gust Humidity Rainfall Rate (Hourly) solar
00:04 48.2 °F /  9 °C 35.6 °F /  2 °C 29.9in /  1014.05hPa NE 13mph /  21km/h 11.8mph /  19km/h 62% 0in /  0mm 0 W/m2
00:09 48.2 °F /  9 °C 35.6 °F /  2 °C 29.9in /  1014.02hPa NE 14.3mph /  23km/h 13mph /  21km/h 62% 0in /  0mm 0 W/m2
00:14 46.4 °F /  8 °C 35.6 °F /  2 °C 29.9in /  1014.05hPa NE 14.9mph /  24km/h 13.7mph /  22km/h 62% 0in /  0mm 0 W/m2
00:19 46.4 °F /  8 °C 35.6 °F /  2 °C 30in /  1014.19hPa NE 13.7mph /  22km/h 13mph /  21km/h 62% 0in /  0mm 0 W/m2
00:24 46.4 °F /  8 °C 33.8 °F /  1 °C 30in /  1014.29hPa NE 12.4mph /  20km/h 10.6mph /  17km/h 61% 0in /  0mm 0 W/m2
00:29 46.4 °F /  8 °C 35.6 °F /  2 °C 30in /  1014.29hPa NE 13.7mph /  22km/h 12.4mph /  20km/h 62% 0in /  0mm 0 W/m2
00:34 46.4 °F /  8 °C 35.6 °F /  2 °C 30in /  1014.43hPa NE 13mph /  21km/h 13.7mph /  22km/h 62% 0in /  0mm 0 W/m2
00:39 46.4 °F /  8 °C 33.8 °F /  1 °C 30in /  1014.53hPa NE 11.2mph /  18km/h 9.9mph /  16km/h 62% 0in /  0mm 0 W/m2
00:44 46.4 °F /  8 °C 33.8 °F /  1 °C 30in /  1014.6hPa NE 11.8mph /  19km/h 9.3mph /  15km/h 62% 0in /  0mm 0 W/m2
00:49 46.4 °F /  8 °C 33.8 °F /  1 °C 30in /  1014.63hPa NE 11.8mph /  19km/h 9.3mph /  15km/h 62% 0in /  0mm 0 W/m2
00:54 46.4 °F /  8 °C 33.8 °F /  1 °C 30in /  1014.73hPa NE 11.2mph /  18km/h 8.7mph /  14km/h 61% 0in /  0mm 0 W/m2
00:59 46.4 °F /  8 °C 33.8 °F /  1 °C 30in /  1014.93hPa ENE 11.2mph /  18km/h 9.3mph /  15km/h 61% 0in /  0mm 0 W/m2
01:04 46.4 °F /  8 °C 33.8 °F /  1 °C 30in /  1014.93hPa NE 11.8mph /  19km/h 10.6mph /  17km/h 59% 0in /  0mm 0 W/m2
01:09 46.4 °F /  8 °C 33.8 °F /  1 °C 30in /  1014.93hPa NE 10.6mph /  17km/h 8.1mph /  13km/h 61% 0in /  0mm 0 W/m2
01:14 46.4 °F /  8 °C 33.8 °F /  1 °C 30in /  1015.04hPa ENE 10.6mph /  17km/h 8.1mph /  13km/h 60% 0in /  0mm 0 W/m2
01:19 46.4 °F /  8 °C 32 °F /  0 °C 30in /  1015.1hPa ENE 10.6mph /  17km/h 11.8mph /  19km/h 59% 0in /  0mm 0 W/m2
01:24 46.4 °F /  8 °C 32 °F /  0 °C 30in /  1015.07hPa NE 8.7mph /  14km/h 6.8mph /  11km/h 59% 0in /  0mm 0 W/m2
01:29 46.4 °F /  8 °C 33.8 °F /  1 °C 30in /  1015.17hPa NE 8.7mph /  14km/h 6.8mph /  11km/h 60% 0in /  0mm 0 W/m2
01:34 46.4 °F /  8 °C 32 °F /  0 °C 30in /  1015.21hPa NE 8.7mph /  14km/h 8.1mph /  13km/h 59% 0in /  0mm 0 W/m2
01:39 46.4 °F /  8 °C 32 °F /  0 °C 30in /  1015.24hPa NE 8.7mph /  14km/h 9.3mph /  15km/h 59% 0in /  0mm 0 W/m2
01:44 46.4 °F /  8 °C 32 °F /  0 °C 30in /  1015.34hPa NE 9.9mph /  16km/h 9.3mph /  15km/h 59% 0in /  0mm 0 W/m2
01:49 44.6 °F /  7 °C 32 °F /  0 °C 30in /  1015.34hPa NE 10.6mph /  17km/h 8.7mph /  14km/h 59% 0in /  0mm 0 W/m2
01:54 44.6 °F /  7 °C 32 °F /  0 °C 30in /  1015.34hPa NE 11.8mph /  19km/h 10.6mph /  17km/h 60% 0in /  0mm 0 W/m2
01:59 44.6 °F /  7 °C 32 °F /  0 °C 30in /  1015.41hPa NE 11.8mph /  19km/h 10.6mph /  17km/h 59% 0in /  0mm 0 W/m2
02:04 44.6 °F /  7 °C 32 °F /  0 °C 30in /  1015.44hPa NE 11.8mph /  19km/h 9.9mph /  16km/h 59% 0in /  0mm 0 W/m2
02:09 44.6 °F /  7 °C 32 °F /  0 °C 30in /  1015.44hPa NE 11.2mph /  18km/h 9.9mph /  16km/h 60% 0in /  0mm 0 W/m2
02:14 44.6 °F /  7 °C 32 °F /  0 °C 30in /  1015.48hPa NE 10.6mph /  17km/h 8.7mph /  14km/h 60% 0in /  0mm 0 W/m2
02:19 44.6 °F /  7 °C 32 °F /  0 °C 30in /  1015.51hPa NE 10.6mph /  17km/h 9.9mph /  16km/h 61% 0in /  0mm 0 W/m2
02:24 44.6 °F /  7 °C 32 °F /  0 °C 30in /  1015.61hPa NE 10.6mph /  17km/h 9.9mph /  16km/h 60% 0in /  0mm 0 W/m2
02:29 44.6 °F /  7 °C 32 °F /  0 °C 30in /  1015.58hPa NE 11.2mph /  18km/h 8.1mph /  13km/h 61% 0in /  0mm 0 W/m2
02:34 44.6 °F /  7 °C 32 °F /  0 °C 30in /  1015.65hPa NE 9.9mph /  16km/h 8.7mph /  14km/h 61% 0in /  0mm 0 W/m2
02:39 44.6 °F /  7 °C 32 °F /  0 °C 30in /  1015.75hPa NE 10.6mph /  17km/h 8.1mph /  13km/h 59% 0in /  0mm 0 W/m2
02:44 44.6 °F /  7 °C 32 °F /  0 °C 30in /  1015.75hPa NE 9.9mph /  16km/h 8.1mph /  13km/h 60% 0in /  0mm 0 W/m2
02:49 44.6 °F /  7 °C 32 °F /  0 °C 30in /  1015.75hPa NE 10.6mph /  17km/h 8.7mph /  14km/h 60% 0in /  0mm 0 W/m2
02:54 44.6 °F /  7 °C 32 °F /  0 °C 30in /  1015.85hPa NE 11.2mph /  18km/h 8.7mph /  14km/h 59% 0in /  0mm 0 W/m2
02:59 44.6 °F /  7 °C 32 °F /  0 °C 30in /  1015.85hPa NE 9.9mph /  16km/h 8.1mph /  13km/h 59% 0in /  0mm 0 W/m2
03:04 44.6 °F /  7 °C 32 °F /  0 °C 30in /  1015.85hPa NE 9.3mph /  15km/h 8.1mph /  13km/h 60% 0in /  0mm 0 W/m2
03:09 44.6 °F /  7 °C 32 °F /  0 °C 30in /  1015.85hPa NE 9.3mph /  15km/h 8.1mph /  13km/h 60% 0in /  0mm 0 W/m2
03:14 44.6 °F /  7 °C 32 °F /  0 °C 30in /  1015.95hPa NE 9.3mph /  15km/h 7.5mph /  12km/h 60% 0in /  0mm 0 W/m2
03:19 44.6 °F /  7 °C 32 °F /  0 °C 30in /  1016.02hPa NE 8.7mph /  14km/h 8.1mph /  13km/h 59% 0in /  0mm 0 W/m2
03:24 44.6 °F /  7 °C 32 °F /  0 °C 30in /  1016.09hPa NE 8.7mph /  14km/h 6.8mph /  11km/h 59% 0in /  0mm 0 W/m2
03:29 44.6 °F /  7 °C 32 °F /  0 °C 30in /  1016.09hPa NE 8.1mph /  13km/h 6.8mph /  11km/h 60% 0in /  0mm 0 W/m2
03:34 44.6 °F /  7 °C 30.2 °F /  -1 °C 30in /  1016.19hPa NE 9.9mph /  16km/h 7.5mph /  12km/h 59% 0in /  0mm 0 W/m2
03:39 44.6 °F /  7 °C 30.2 °F /  -1 °C 30in /  1016.19hPa NE 11.2mph /  18km/h 8.7mph /  14km/h 59% 0in /  0mm 0 W/m2
03:44 44.6 °F /  7 °C 30.2 °F /  -1 °C 30in /  1016.19hPa NE 9.3mph /  15km/h 8.7mph /  14km/h 59% 0in /  0mm 0 W/m2
03:49 44.6 °F /  7 °C 30.2 °F /  -1 °C 30in /  1016.29hPa NE 9.3mph /  15km/h 8.7mph /  14km/h 60% 0in /  0mm 0 W/m2
03:54 44.6 °F /  7 °C 30.2 °F /  -1 °C 30in /  1016.36hPa NE 8.7mph /  14km/h 6.8mph /  11km/h 60% 0in /  0mm 0 W/m2
03:59 44.6 °F /  7 °C 30.2 °F /  -1 °C 30in /  1016.39hPa NE 10.6mph /  17km/h 9.3mph /  15km/h 59% 0in /  0mm 0 W/m2
04:04 42.8 °F /  6 °C 30.2 °F /  -1 °C 30in /  1016.42hPa NE 10.6mph /  17km/h 9.3mph /  15km/h 59% 0in /  0mm 0 W/m2
04:09 42.8 °F /  6 °C 30.2 °F /  -1 °C 30in /  1016.49hPa NE 9.3mph /  15km/h 8.1mph /  13km/h 60% 0in /  0mm 0 W/m2
04:14 42.8 °F /  6 °C 30.2 °F /  -1 °C 30in /  1016.49hPa NE 8.1mph /  13km/h 7.5mph /  12km/h 60% 0in /  0mm 0 W/m2
04:19 42.8 °F /  6 °C 32 °F /  0 °C 30in /  1016.56hPa NE 8.7mph /  14km/h 8.1mph /  13km/h 62% 0in /  0mm 0 W/m2
04:24 42.8 °F /  6 °C 30.2 °F /  -1 °C 30in /  1016.63hPa NE 7.5mph /  12km/h 6.8mph /  11km/h 60% 0in /  0mm 0 W/m2
04:29 42.8 °F /  6 °C 30.2 °F /  -1 °C 30in /  1016.66hPa NE 8.1mph /  13km/h 7.5mph /  12km/h 61% 0in /  0mm 0 W/m2
04:34 42.8 °F /  6 °C 30.2 °F /  -1 °C 30in /  1016.73hPa NE 9.3mph /  15km/h 8.7mph /  14km/h 60% 0in /  0mm 0 W/m2
04:39 42.8 °F /  6 °C 30.2 °F /  -1 °C 30in /  1016.8hPa NE 9.3mph /  15km/h 8.1mph /  13km/h 61% 0in /  0mm 0 W/m2
04:44 42.8 °F /  6 °C 30.2 °F /  -1 °C 30in /  1016.86hPa NE 8.7mph /  14km/h 7.5mph /  12km/h 61% 0in /  0mm 0 W/m2
04:49 42.8 °F /  6 °C 30.2 °F /  -1 °C 30in /  1016.86hPa NE 10.6mph /  17km/h 8.7mph /  14km/h 61% 0in /  0mm 0 W/m2
04:54 42.8 °F /  6 °C 30.2 °F /  -1 °C 30in /  1016.93hPa NE 9.9mph /  16km/h 7.5mph /  12km/h 61% 0in /  0mm 0 W/m2
04:59 42.8 °F /  6 °C 30.2 °F /  -1 °C 30in /  1016.93hPa NE 8.7mph /  14km/h 6.8mph /  11km/h 61% 0in /  0mm 0 W/m2
05:04 42.8 °F /  6 °C 30.2 °F /  -1 °C 30in /  1016.97hPa NE 9.3mph /  15km/h 7.5mph /  12km/h 62% 0in /  0mm 0 W/m2
05:09 42.8 °F /  6 °C 30.2 °F /  -1 °C 30in /  1016.97hPa NE 9.3mph /  15km/h 8.1mph /  13km/h 62% 0in /  0mm 0 W/m2
05:14 42.8 °F /  6 °C 30.2 °F /  -1 °C 30in /  1017.03hPa NE 8.7mph /  14km/h 6.8mph /  11km/h 61% 0in /  0mm 0 W/m2
05:19 42.8 °F /  6 °C 32 °F /  0 °C 30in /  1017.07hPa ENE 10.6mph /  17km/h 9.3mph /  15km/h 62% 0in /  0mm 0 W/m2
05:24 42.8 °F /  6 °C 30.2 °F /  -1 °C 30in /  1017.14hPa ENE 11.2mph /  18km/h 9.3mph /  15km/h 61% 0in /  0mm 5 W/m2
05:29 42.8 °F /  6 °C 30.2 °F /  -1 °C 30in /  1017.17hPa ENE 12.4mph /  20km/h 11.2mph /  18km/h 60% 0in /  0mm 7 W/m2
05:34 42.8 °F /  6 °C 30.2 °F /  -1 °C 30in /  1017.24hPa NE 9.9mph /  16km/h 8.1mph /  13km/h 60% 0in /  0mm 9 W/m2
05:39 42.8 °F /  6 °C 30.2 °F /  -1 °C 30in /  1017.27hPa NE 9.9mph /  16km/h 9.9mph /  16km/h 60% 0in /  0mm 14 W/m2
05:44 42.8 °F /  6 °C 30.2 °F /  -1 °C 30in /  1017.34hPa ENE 11.2mph /  18km/h 9.9mph /  16km/h 59% 0in /  0mm 21 W/m2
05:49 42.8 °F /  6 °C 30.2 °F /  -1 °C 30in /  1017.37hPa ENE 10.6mph /  17km/h 8.1mph /  13km/h 60% 0in /  0mm 26 W/m2
05:54 42.8 °F /  6 °C 30.2 °F /  -1 °C 30in /  1017.44hPa NE 9.9mph /  16km/h 8.1mph /  13km/h 60% 0in /  0mm 33 W/m2
05:59 42.8 °F /  6 °C 32 °F /  0 °C 30.1in /  1017.51hPa NE 8.7mph /  14km/h 7.5mph /  12km/h 62% 0in /  0mm 42 W/m2
06:04 42.8 °F /  6 °C 32 °F /  0 °C 30.1in /  1017.58hPa ENE 11.2mph /  18km/h 9.9mph /  16km/h 61% 0in /  0mm 53 W/m2
06:09 44.6 °F /  7 °C 32 °F /  0 °C 30.1in /  1017.64hPa NE 10.6mph /  17km/h 9.3mph /  15km/h 61% 0in /  0mm 63 W/m2
06:14 44.6 °F /  7 °C 32 °F /  0 °C 30.1in /  1017.71hPa ENE 11.2mph /  18km/h 10.6mph /  17km/h 60% 0in /  0mm 76 W/m2
06:19 44.6 °F /  7 °C 32 °F /  0 °C 30.1in /  1017.78hPa ENE 11.8mph /  19km/h 11.8mph /  19km/h 61% 0in /  0mm 84 W/m2
06:24 44.6 °F /  7 °C 32 °F /  0 °C 30.1in /  1017.88hPa ENE 11.2mph /  18km/h 10.6mph /  17km/h 63% 0in /  0mm 95 W/m2
06:29 44.6 °F /  7 °C 32 °F /  0 °C 30.1in /  1017.91hPa ENE 10.6mph /  17km/h 9.3mph /  15km/h 62% 0in /  0mm 100 W/m2
06:34 44.6 °F /  7 °C 32 °F /  0 °C 30.1in /  1017.91hPa ENE 11.2mph /  18km/h 9.3mph /  15km/h 61% 0in /  0mm 111 W/m2
06:39 44.6 °F /  7 °C 32 °F /  0 °C 30.1in /  1017.98hPa ENE 11.2mph /  18km/h 10.6mph /  17km/h 61% 0in /  0mm 111 W/m2
06:44 44.6 °F /  7 °C 32 °F /  0 °C 30.1in /  1017.98hPa ENE 11.2mph /  18km/h 9.9mph /  16km/h 62% 0in /  0mm 113 W/m2
06:49 44.6 °F /  7 °C 32 °F /  0 °C 30.1in /  1018.05hPa ENE 10.6mph /  17km/h 8.7mph /  14km/h 63% 0in /  0mm 132 W/m2
06:54 44.6 °F /  7 °C 32 °F /  0 °C 30.1in /  1018.12hPa ENE 10.6mph /  17km/h 9.9mph /  16km/h 60% 0in /  0mm 141 W/m2
06:59 44.6 °F /  7 °C 32 °F /  0 °C 30.1in /  1018.12hPa ENE 11.2mph /  18km/h 11.8mph /  19km/h 63% 0in /  0mm 155 W/m2
07:04 44.6 °F /  7 °C 32 °F /  0 °C 30.1in /  1018.22hPa ENE 11.8mph /  19km/h 11.8mph /  19km/h 62% 0in /  0mm 160 W/m2
07:09 44.6 °F /  7 °C 32 °F /  0 °C 30.1in /  1018.25hPa ENE 11.8mph /  19km/h 11.2mph /  18km/h 62% 0in /  0mm 167 W/m2
07:14 44.6 °F /  7 °C 32 °F /  0 °C 30.1in /  1018.32hPa ENE 11.8mph /  19km/h 10.6mph /  17km/h 62% 0in /  0mm 179 W/m2
07:19 44.6 °F /  7 °C 32 °F /  0 °C 30.1in /  1018.35hPa ENE 11.8mph /  19km/h 10.6mph /  17km/h 62% 0in /  0mm 192 W/m2
07:24 44.6 °F /  7 °C 32 °F /  0 °C 30.1in /  1018.49hPa ENE 12.4mph /  20km/h 11.2mph /  18km/h 62% 0in /  0mm 200 W/m2
07:29 44.6 °F /  7 °C 32 °F /  0 °C 30.1in /  1018.52hPa ENE 11.2mph /  18km/h 11.2mph /  18km/h 61% 0in /  0mm 213 W/m2
07:34 44.6 °F /  7 °C 32 °F /  0 °C 30.1in /  1018.59hPa ENE 11.8mph /  19km/h 9.9mph /  16km/h 61% 0in /  0mm 223 W/m2
07:39 44.6 °F /  7 °C 32 °F /  0 °C 30.1in /  1018.66hPa ENE 12.4mph /  20km/h 11.8mph /  19km/h 59% 0in /  0mm 236 W/m2
07:44 44.6 °F /  7 °C 32 °F /  0 °C 30.1in /  1018.69hPa ENE 13mph /  21km/h 12.4mph /  20km/h 59% 0in /  0mm 246 W/m2
07:49 44.6 °F /  7 °C 32 °F /  0 °C 30.1in /  1018.69hPa ENE 12.4mph /  20km/h 11.8mph /  19km/h 59% 0in /  0mm 257 W/m2
07:54 44.6 °F /  7 °C 32 °F /  0 °C 30.1in /  1018.73hPa ENE 13.7mph /  22km/h 13mph /  21km/h 58% 0in /  0mm 267 W/m2
07:59 44.6 °F /  7 °C 32 °F /  0 °C 30.1in /  1018.8hPa ENE 13mph /  21km/h 11.8mph /  19km/h 59% 0in /  0mm 281 W/m2
08:04 44.6 °F /  7 °C 32 °F /  0 °C 30.1in /  1018.83hPa ENE 14.3mph /  23km/h 13mph /  21km/h 58% 0in /  0mm 294 W/m2
08:09 46.4 °F /  8 °C 32 °F /  0 °C 30.1in /  1018.86hPa ENE 13mph /  21km/h 12.4mph /  20km/h 57% 0in /  0mm 304 W/m2
08:14 46.4 °F /  8 °C 32 °F /  0 °C 30.1in /  1018.9hPa ENE 13mph /  21km/h 12.4mph /  20km/h 57% 0in /  0mm 311 W/m2
08:19 46.4 °F /  8 °C 32 °F /  0 °C 30.1in /  1018.9hPa ENE 11.8mph /  19km/h 11.2mph /  18km/h 59% 0in /  0mm 320 W/m2
08:24 46.4 °F /  8 °C 32 °F /  0 °C 30.1in /  1018.9hPa ENE 10.6mph /  17km/h 9.9mph /  16km/h 58% 0in /  0mm 336 W/m2
08:29 46.4 °F /  8 °C 32 °F /  0 °C 30.1in /  1018.96hPa ENE 9.9mph /  16km/h 9.9mph /  16km/h 57% 0in /  0mm 350 W/m2
08:34 46.4 °F /  8 °C 32 °F /  0 °C 30.1in /  1019.03hPa ENE 9.3mph /  15km/h 8.7mph /  14km/h 57% 0in /  0mm 350 W/m2
08:39 48.2 °F /  9 °C 32 °F /  0 °C 30.1in /  1019.1hPa ENE 11.2mph /  18km/h 12.4mph /  20km/h 55% 0in /  0mm 359 W/m2
08:44 48.2 °F /  9 °C 30.2 °F /  -1 °C 30.1in /  1019.17hPa E 13.7mph /  22km/h 11.2mph /  18km/h 51% 0in /  0mm 380 W/m2
08:49 48.2 °F /  9 °C 30.2 °F /  -1 °C 30.1in /  1019.2hPa ENE 13mph /  21km/h 12.4mph /  20km/h 50% 0in /  0mm 385 W/m2
08:54 48.2 °F /  9 °C 32 °F /  0 °C 30.1in /  1019.2hPa E 13.7mph /  22km/h 12.4mph /  20km/h 51% 0in /  0mm 408 W/m2
08:59 48.2 °F /  9 °C 32 °F /  0 °C 30.1in /  1019.3hPa E 12.4mph /  20km/h 11.2mph /  18km/h 52% 0in /  0mm 422 W/m2
09:04 48.2 °F /  9 °C 32 °F /  0 °C 30.1in /  1019.27hPa ENE 14.3mph /  23km/h 13mph /  21km/h 50% 0in /  0mm 431 W/m2
09:09 48.2 °F /  9 °C 32 °F /  0 °C 30.1in /  1019.4hPa E 13.7mph /  22km/h 11.2mph /  18km/h 51% 0in /  0mm 438 W/m2
09:14 48.2 °F /  9 °C 32 °F /  0 °C 30.1in /  1019.4hPa E 13.7mph /  22km/h 11.8mph /  19km/h 52% 0in /  0mm 448 W/m2
09:19 48.2 °F /  9 °C 32 °F /  0 °C 30.1in /  1019.47hPa ENE 15.5mph /  25km/h 12.4mph /  20km/h 52% 0in /  0mm 457 W/m2
09:24 48.2 °F /  9 °C 32 °F /  0 °C 30.1in /  1019.51hPa ENE 13.7mph /  22km/h 11.8mph /  19km/h 51% 0in /  0mm 466 W/m2
09:29 48.2 °F /  9 °C 32 °F /  0 °C 30.1in /  1019.54hPa ENE 14.9mph /  24km/h 13mph /  21km/h 51% 0in /  0mm 478 W/m2
09:38 48.2 °F /  9 °C 32 °F /  0 °C 30.1in /  1019.57hPa ENE 18mph /  29km/h 14.9mph /  24km/h 53% 0in /  0mm 499 W/m2
09:44 48.2 °F /  9 °C 33.8 °F /  1 °C 30.1in /  1019.57hPa ENE 13.7mph /  22km/h 11.2mph /  18km/h 54% 0in /  0mm 512 W/m2
09:49 48.2 °F /  9 °C 33.8 °F /  1 °C 30.1in /  1019.64hPa E 15.5mph /  25km/h 14.3mph /  23km/h 55% 0in /  0mm 520 W/m2
09:54 48.2 °F /  9 °C 33.8 °F /  1 °C 30.1in /  1019.68hPa E 13mph /  21km/h 11.2mph /  18km/h 56% 0in /  0mm 529 W/m2
09:59 50 °F /  10 °C 35.6 °F /  2 °C 30.1in /  1019.71hPa E 10.6mph /  17km/h 9.3mph /  15km/h 58% 0in /  0mm 541 W/m2
10:04 50 °F /  10 °C 33.8 °F /  1 °C 30.1in /  1019.71hPa E 12.4mph /  20km/h 10.6mph /  17km/h 57% 0in /  0mm 550 W/m2
10:09 48.2 °F /  9 °C 33.8 °F /  1 °C 30.1in /  1019.78hPa E 12.4mph /  20km/h 10.6mph /  17km/h 57% 0in /  0mm 559 W/m2
10:14 48.2 °F /  9 °C 33.8 °F /  1 °C 30.1in /  1019.71hPa E 11.2mph /  18km/h 9.3mph /  15km/h 56% 0in /  0mm 568 W/m2
10:19 48.2 °F /  9 °C 33.8 °F /  1 °C 30.1in /  1019.74hPa E 13mph /  21km/h 9.9mph /  16km/h 57% 0in /  0mm 575 W/m2
10:24 48.2 °F /  9 °C 35.6 °F /  2 °C 30.1in /  1019.81hPa E 12.4mph /  20km/h 9.9mph /  16km/h 58% 0in /  0mm 585 W/m2
10:29 48.2 °F /  9 °C 35.6 °F /  2 °C 30.1in /  1019.81hPa E 11.8mph /  19km/h 10.6mph /  17km/h 58% 0in /  0mm 596 W/m2
10:34 48.2 °F /  9 °C 33.8 °F /  1 °C 30.1in /  1019.81hPa ENE 13.7mph /  22km/h 12.4mph /  20km/h 57% 0in /  0mm 596 W/m2
10:39 48.2 °F /  9 °C 35.6 °F /  2 °C 30.1in /  1019.81hPa E 13mph /  21km/h 11.2mph /  18km/h 58% 0in /  0mm 610 W/m2
10:44 48.2 °F /  9 °C 33.8 °F /  1 °C 30.1in /  1019.81hPa E 13mph /  21km/h 9.9mph /  16km/h 58% 0in /  0mm 619 W/m2
10:49 48.2 °F /  9 °C 35.6 °F /  2 °C 30.1in /  1019.88hPa E 13mph /  21km/h 11.2mph /  18km/h 60% 0in /  0mm 624 W/m2
10:54 48.2 °F /  9 °C 35.6 °F /  2 °C 30.1in /  1019.88hPa ESE 12.4mph /  20km/h 9.9mph /  16km/h 58% 0in /  0mm 631 W/m2
10:59 48.2 °F /  9 °C 35.6 °F /  2 °C 30.1in /  1019.91hPa ESE 11.8mph /  19km/h 10.6mph /  17km/h 58% 0in /  0mm 640 W/m2
11:04 48.2 °F /  9 °C 33.8 °F /  1 °C 30.1in /  1019.91hPa E 12.4mph /  20km/h 11.2mph /  18km/h 57% 0in /  0mm 647 W/m2
11:09 48.2 °F /  9 °C 33.8 °F /  1 °C 30.1in /  1019.95hPa E 11.8mph /  19km/h 11.2mph /  18km/h 57% 0in /  0mm 654 W/m2
11:14 48.2 °F /  9 °C 33.8 °F /  1 °C 30.1in /  1020.01hPa E 11.2mph /  18km/h 9.3mph /  15km/h 57% 0in /  0mm 661 W/m2
11:19 48.2 °F /  9 °C 35.6 °F /  2 °C 30.1in /  1020.01hPa ENE 11.2mph /  18km/h 9.3mph /  15km/h 57% 0in /  0mm 666 W/m2
11:24 48.2 °F /  9 °C 35.6 °F /  2 °C 30.1in /  1020.01hPa E 11.2mph /  18km/h 10.6mph /  17km/h 58% 0in /  0mm 673 W/m2
11:29 48.2 °F /  9 °C 35.6 °F /  2 °C 30.1in /  1020.08hPa E 11.8mph /  19km/h 9.9mph /  16km/h 58% 0in /  0mm 679 W/m2
11:34 48.2 °F /  9 °C 35.6 °F /  2 °C 30.1in /  1020.12hPa E 11.8mph /  19km/h 9.3mph /  15km/h 59% 0in /  0mm 684 W/m2
11:39 48.2 °F /  9 °C 35.6 °F /  2 °C 30.1in /  1020.12hPa ESE 11.2mph /  18km/h 8.7mph /  14km/h 60% 0in /  0mm 687 W/m2
11:44 48.2 °F /  9 °C 35.6 °F /  2 °C 30.1in /  1020.08hPa E 11.2mph /  18km/h 9.9mph /  16km/h 60% 0in /  0mm 693 W/m2
11:49 48.2 °F /  9 °C 35.6 °F /  2 °C 30.1in /  1020.08hPa E 11.2mph /  18km/h 8.7mph /  14km/h 60% 0in /  0mm 696 W/m2
11:54 48.2 °F /  9 °C 35.6 °F /  2 °C 30.1in /  1020.08hPa ESE 11.8mph /  19km/h 9.9mph /  16km/h 60% 0in /  0mm 700 W/m2
11:59 48.2 °F /  9 °C 35.6 °F /  2 °C 30.1in /  1020.08hPa ESE 10.6mph /  17km/h 9.3mph /  15km/h 62% 0in /  0mm 707 W/m2
12:04 48.2 °F /  9 °C 35.6 °F /  2 °C 30.1in /  1020.05hPa E 11.2mph /  18km/h 10.6mph /  17km/h 61% 0in /  0mm 710 W/m2
12:09 48.2 °F /  9 °C 35.6 °F /  2 °C 30.1in /  1020.08hPa ESE 11.2mph /  18km/h 9.9mph /  16km/h 61% 0in /  0mm 715 W/m2
12:14 48.2 °F /  9 °C 35.6 °F /  2 °C 30.1in /  1020.05hPa ESE 11.8mph /  19km/h 9.9mph /  16km/h 60% 0in /  0mm 719 W/m2
12:19 48.2 °F /  9 °C 35.6 °F /  2 °C 30.1in /  1020.01hPa ESE 10.6mph /  17km/h 10.6mph /  17km/h 62% 0in /  0mm 722 W/m2
12:24 48.2 °F /  9 °C 35.6 °F /  2 °C 30.1in /  1020.08hPa E 11.2mph /  18km/h 9.9mph /  16km/h 61% 0in /  0mm 724 W/m2
12:29 48.2 °F /  9 °C 35.6 °F /  2 °C 30.1in /  1020.08hPa ESE 11.2mph /  18km/h 9.9mph /  16km/h 62% 0in /  0mm 728 W/m2
12:34 48.2 °F /  9 °C 35.6 °F /  2 °C 30.1in /  1020.08hPa E 10.6mph /  17km/h 9.9mph /  16km/h 62% 0in /  0mm 729 W/m2
12:39 48.2 °F /  9 °C 35.6 °F /  2 °C 30.1in /  1020.08hPa E 9.9mph /  16km/h 8.7mph /  14km/h 61% 0in /  0mm 731 W/m2
12:44 48.2 °F /  9 °C 35.6 °F /  2 °C 30.1in /  1020.01hPa E 9.3mph /  15km/h 9.3mph /  15km/h 60% 0in /  0mm 737 W/m2
12:49 48.2 °F /  9 °C 35.6 °F /  2 °C 30.1in /  1019.98hPa E 9.3mph /  15km/h 9.3mph /  15km/h 60% 0in /  0mm 737 W/m2
12:54 48.2 °F /  9 °C 35.6 °F /  2 °C 30.1in /  1019.98hPa E 9.9mph /  16km/h 8.7mph /  14km/h 59% 0in /  0mm 738 W/m2
12:59 48.2 °F /  9 °C 35.6 °F /  2 °C 30.1in /  1019.95hPa ESE 9.9mph /  16km/h 8.1mph /  13km/h 60% 0in /  0mm 740 W/m2
13:04 48.2 °F /  9 °C 35.6 °F /  2 °C 30.1in /  1019.88hPa ESE 10.6mph /  17km/h 8.7mph /  14km/h 60% 0in /  0mm 740 W/m2
13:09 48.2 °F /  9 °C 35.6 °F /  2 °C 30.1in /  1019.88hPa ESE 9.3mph /  15km/h 8.7mph /  14km/h 61% 0in /  0mm 740 W/m2
13:14 48.2 °F /  9 °C 35.6 °F /  2 °C 30.1in /  1019.88hPa SE 10.6mph /  17km/h 8.7mph /  14km/h 61% 0in /  0mm 744 W/m2
13:19 48.2 °F /  9 °C 35.6 °F /  2 °C 30.1in /  1019.88hPa ESE 9.9mph /  16km/h 8.7mph /  14km/h 62% 0in /  0mm 744 W/m2
13:24 48.2 °F /  9 °C 37.4 °F /  3 °C 30.1in /  1019.84hPa SE 9.3mph /  15km/h 8.1mph /  13km/h 62% 0in /  0mm 744 W/m2
13:29 48.2 °F /  9 °C 35.6 °F /  2 °C 30.1in /  1019.84hPa ESE 10.6mph /  17km/h 9.3mph /  15km/h 61% 0in /  0mm 745 W/m2
13:34 48.2 °F /  9 °C 37.4 °F /  3 °C 30.1in /  1019.74hPa SE 8.1mph /  13km/h 7.5mph /  12km/h 62% 0in /  0mm 745 W/m2
13:39 48.2 °F /  9 °C 37.4 °F /  3 °C 30.1in /  1019.78hPa E 10.6mph /  17km/h 8.1mph /  13km/h 62% 0in /  0mm 747 W/m2
13:44 48.2 °F /  9 °C 37.4 °F /  3 °C 30.1in /  1019.78hPa SE 9.9mph /  16km/h 9.3mph /  15km/h 62% 0in /  0mm 747 W/m2
13:49 48.2 °F /  9 °C 37.4 °F /  3 °C 30.1in /  1019.74hPa SE 9.9mph /  16km/h 8.1mph /  13km/h 63% 0in /  0mm 747 W/m2
13:54 48.2 °F /  9 °C 37.4 °F /  3 °C 30.1in /  1019.71hPa SE 9.3mph /  15km/h 8.1mph /  13km/h 63% 0in /  0mm 751 W/m2
13:59 48.2 °F /  9 °C 37.4 °F /  3 °C 30.1in /  1019.61hPa SE 11.2mph /  18km/h 10.6mph /  17km/h 63% 0in /  0mm 751 W/m2
14:04 48.2 °F /  9 °C 37.4 °F /  3 °C 30.1in /  1019.64hPa SE 11.2mph /  18km/h 9.3mph /  15km/h 64% 0in /  0mm 738 W/m2
14:09 48.2 °F /  9 °C 37.4 °F /  3 °C 30.1in /  1019.64hPa SE 9.9mph /  16km/h 9.9mph /  16km/h 64% 0in /  0mm 737 W/m2
14:14 48.2 °F /  9 °C 37.4 °F /  3 °C 30.1in /  1019.54hPa SE 12.4mph /  20km/h 11.2mph /  18km/h 65% 0in /  0mm 737 W/m2
14:19 48.2 °F /  9 °C 37.4 °F /  3 °C 30.1in /  1019.54hPa ESE 11.8mph /  19km/h 9.9mph /  16km/h 63% 0in /  0mm 733 W/m2
Compliments of Weather Underground - 2 mb